createdAt,value
2023-05-06T00:01:42.183Z,3.45
2023-05-06T00:04:09.589Z,3.38
2023-05-06T00:06:37.715Z,3.90
2023-05-06T00:09:04.935Z,3.60
2023-05-06T00:11:32.152Z,3.20
2023-05-06T00:13:59.348Z,4.32
2023-05-06T00:16:26.665Z,3.00
2023-05-06T00:18:54.027Z,3.50
2023-05-06T00:21:21.288Z,3.40
2023-05-06T00:23:48.610Z,3.63
2023-05-06T00:26:16.505Z,3.70
2023-05-06T00:28:43.663Z,3.97
2023-05-06T00:31:11.020Z,4.47
2023-05-06T00:33:38.136Z,3.83
2023-05-06T00:36:05.604Z,4.32
2023-05-06T00:38:32.884Z,3.42
2023-05-06T00:41:00.082Z,3.05
2023-05-06T00:43:27.252Z,3.40
2023-05-06T00:45:55.009Z,3.60
2023-05-06T00:48:22.413Z,3.33
2023-05-06T00:50:49.948Z,3.45
2023-05-06T00:53:22.238Z,3.60
2023-05-06T00:55:51.722Z,3.30
2023-05-06T00:58:20.732Z,3.55
2023-05-06T01:00:48.012Z,3.63
2023-05-06T01:03:15.383Z,3.47
2023-05-06T01:06:15.042Z,4.22
2023-05-06T01:08:58.128Z,3.60
2023-05-06T01:11:35.830Z,3.60
2023-05-06T01:14:14.111Z,3.63
2023-05-06T01:16:42.680Z,3.97
2023-05-06T01:19:11.651Z,4.00
2023-05-06T01:21:42.328Z,3.25
2023-05-06T01:24:09.539Z,3.50
2023-05-06T01:26:36.707Z,3.58
2023-05-06T01:29:04.466Z,3.63
2023-05-06T01:31:43.669Z,4.03
2023-05-06T01:34:18.732Z,3.70
2023-05-06T01:36:54.935Z,3.92
2023-05-06T01:39:25.885Z,3.70
2023-05-06T01:41:57.776Z,3.78
2023-05-06T01:44:28.152Z,3.50
2023-05-06T01:46:56.824Z,3.58
2023-05-06T01:49:26.631Z,4.13
2023-05-06T01:51:54.381Z,4.38
2023-05-06T01:54:21.883Z,3.75
2023-05-06T01:56:49.204Z,3.53
2023-05-06T01:59:16.415Z,3.08
2023-05-06T02:01:43.706Z,3.72
2023-05-06T02:04:11.237Z,3.75
2023-05-06T02:06:38.413Z,4.20
2023-05-06T02:09:05.800Z,3.60
2023-05-06T02:11:33.092Z,3.90
2023-05-06T02:14:00.207Z,3.65
2023-05-06T02:16:30.513Z,3.75
2023-05-06T02:18:57.831Z,4.03
2023-05-06T02:21:25.097Z,3.70
2023-05-06T02:23:52.164Z,3.67
2023-05-06T02:26:19.316Z,3.70
2023-05-06T02:28:46.506Z,4.00
2023-05-06T02:31:16.412Z,3.58
2023-05-06T02:33:45.519Z,3.65
2023-05-06T02:36:12.785Z,4.05
2023-05-06T02:38:40.012Z,3.50
2023-05-06T02:41:07.312Z,4.35
2023-05-06T02:43:34.417Z,3.53
2023-05-06T02:46:01.773Z,4.07
2023-05-06T02:48:29.077Z,4.63
2023-05-06T02:50:56.243Z,4.13
2023-05-06T02:53:23.453Z,4.22
2023-05-06T02:55:50.717Z,3.63
2023-05-06T02:58:17.915Z,3.75
2023-05-06T03:00:45.329Z,3.60
2023-05-06T03:03:12.583Z,3.90
2023-05-06T03:05:39.759Z,3.85
2023-05-06T03:08:07.123Z,4.05
2023-05-06T03:10:34.391Z,3.88
2023-05-06T03:13:01.634Z,4.03
2023-05-06T03:15:29.157Z,4.25
2023-05-06T03:17:56.640Z,3.63
2023-05-06T03:20:24.115Z,3.50
2023-05-06T03:22:51.646Z,3.72
2023-05-06T03:25:18.428Z,3.97
2023-05-06T03:27:45.663Z,3.67
2023-05-06T03:30:13.336Z,3.65
2023-05-06T03:32:40.716Z,3.65
2023-05-06T03:35:09.154Z,4.50
2023-05-06T03:37:36.389Z,3.58
2023-05-06T03:40:04.941Z,3.28
2023-05-06T03:42:32.300Z,3.38
2023-05-06T03:44:59.424Z,3.45
2023-05-06T03:47:26.528Z,3.17
2023-05-06T03:49:53.705Z,3.88
2023-05-06T03:52:21.586Z,3.47
2023-05-06T03:54:48.788Z,3.25
2023-05-06T03:57:16.140Z,2.90
2023-05-06T03:59:43.904Z,2.92
2023-05-06T04:02:10.561Z,3.38
2023-05-06T04:04:37.478Z,3.10
2023-05-06T04:07:04.234Z,3.05
2023-05-06T04:09:33.960Z,3.05
2023-05-06T04:12:03.249Z,2.60
2023-05-06T04:14:30.877Z,3.08
2023-05-06T04:16:58.199Z,3.83
2023-05-06T04:19:25.566Z,3.00
2023-05-06T04:21:52.853Z,3.25
2023-05-06T04:24:20.366Z,3.35
2023-05-06T04:26:47.917Z,3.13
2023-05-06T04:29:15.208Z,3.15
2023-05-06T04:31:42.562Z,2.85
2023-05-06T04:34:11.762Z,2.90
2023-05-06T04:36:40.672Z,3.35
2023-05-06T04:39:09.429Z,3.53
2023-05-06T04:41:37.148Z,3.88
2023-05-06T04:44:04.543Z,3.33
2023-05-06T04:46:31.355Z,2.92
2023-05-06T04:48:58.684Z,3.90
2023-05-06T04:51:27.259Z,2.85
2023-05-06T04:53:54.464Z,2.85
2023-05-06T04:56:21.951Z,2.97
2023-05-06T04:58:48.845Z,3.05
2023-05-06T05:01:16.264Z,2.83
2023-05-06T05:03:43.591Z,2.70
2023-05-06T05:06:11.870Z,2.70
2023-05-06T05:08:39.428Z,2.30
2023-05-06T05:11:07.808Z,2.75
2023-05-06T05:13:36.300Z,2.67
2023-05-06T05:16:03.834Z,2.30
2023-05-06T05:18:31.149Z,2.40
2023-05-06T05:20:58.639Z,2.65
2023-05-06T05:23:25.791Z,3.50
2023-05-06T05:25:53.466Z,2.90
2023-05-06T05:28:20.663Z,3.28
2023-05-06T05:30:47.458Z,2.20
2023-05-06T05:33:14.877Z,2.78
2023-05-06T05:35:42.181Z,3.55
2023-05-06T05:38:14.571Z,2.92
2023-05-06T05:40:42.543Z,2.70
2023-05-06T05:43:09.822Z,2.83
2023-05-06T05:45:37.232Z,2.58
2023-05-06T05:48:04.354Z,2.40
2023-05-06T05:50:31.061Z,2.80
2023-05-06T05:52:58.606Z,2.60
2023-05-06T05:55:26.175Z,2.60
2023-05-06T05:57:53.357Z,2.92
2023-05-06T06:00:20.683Z,2.70
2023-05-06T06:02:50.179Z,2.67
2023-05-06T06:05:17.091Z,2.17
2023-05-06T06:07:44.274Z,2.88
2023-05-06T06:10:13.837Z,2.03
2023-05-06T06:12:41.303Z,2.63
2023-05-06T06:15:09.478Z,2.13
2023-05-06T06:17:37.255Z,2.53
2023-05-06T06:20:09.089Z,2.60
2023-05-06T06:22:35.940Z,2.13
2023-05-06T06:25:03.407Z,2.83
2023-05-06T06:27:31.459Z,2.97
2023-05-06T06:29:58.950Z,2.72
2023-05-06T06:32:26.475Z,2.70
2023-05-06T06:34:54.418Z,3.45
2023-05-06T06:37:21.812Z,2.53
2023-05-06T06:39:48.633Z,4.15
2023-05-06T06:42:15.908Z,2.60
2023-05-06T06:44:43.152Z,2.95
2023-05-06T06:47:10.438Z,2.83
2023-05-06T06:49:38.874Z,2.70
2023-05-06T06:52:06.485Z,2.50
2023-05-06T06:54:33.875Z,3.03
2023-05-06T06:57:01.639Z,2.92
2023-05-06T06:59:28.436Z,2.78
2023-05-06T07:01:55.915Z,2.42
2023-05-06T07:04:23.380Z,2.25
2023-05-06T07:06:50.137Z,3.13
2023-05-06T07:09:16.869Z,3.45
2023-05-06T07:11:44.305Z,4.20
2023-05-06T07:14:12.422Z,3.85
2023-05-06T07:16:40.128Z,3.85
2023-05-06T07:19:07.722Z,2.33
2023-05-06T07:21:35.094Z,4.57
2023-05-06T07:24:02.565Z,5.22
2023-05-06T07:26:29.684Z,3.53
2023-05-06T07:28:57.162Z,4.38
2023-05-06T07:31:24.742Z,3.72
2023-05-06T07:33:51.977Z,3.70
2023-05-06T07:36:18.844Z,2.80
2023-05-06T07:38:46.201Z,3.03
2023-05-06T07:41:24.555Z,2.80
2023-05-06T07:43:51.887Z,2.55
2023-05-06T07:46:19.052Z,2.35
2023-05-06T07:48:47.787Z,5.70
2023-05-06T07:51:15.380Z,3.00
2023-05-06T07:53:42.807Z,2.60
2023-05-06T07:56:10.164Z,2.80
2023-05-06T07:58:37.058Z,2.90
2023-05-06T08:01:04.245Z,3.65
2023-05-06T08:03:31.860Z,4.45
2023-05-06T08:06:00.190Z,3.97
2023-05-06T08:08:28.198Z,2.55
2023-05-06T08:10:56.753Z,2.45
2023-05-06T08:13:24.780Z,3.05
2023-05-06T08:15:52.564Z,3.65
2023-05-06T08:18:22.926Z,2.40
2023-05-06T08:20:51.821Z,2.92
2023-05-06T08:23:19.276Z,2.85
2023-05-06T08:25:47.128Z,3.70
2023-05-06T08:28:14.545Z,3.55
2023-05-06T08:30:42.062Z,2.40
2023-05-06T08:33:09.406Z,2.70
2023-05-06T08:35:36.909Z,6.60
2023-05-06T08:38:04.226Z,2.67
2023-05-06T08:40:34.176Z,3.17
2023-05-06T08:43:04.626Z,2.60
2023-05-06T08:45:33.508Z,4.93
2023-05-06T08:48:00.682Z,2.67
2023-05-06T08:50:28.371Z,2.70
2023-05-06T08:52:55.859Z,2.53
2023-05-06T08:55:27.325Z,2.40
2023-05-06T08:57:56.862Z,5.93
2023-05-06T09:00:24.460Z,2.80
2023-05-06T09:02:52.093Z,2.10
2023-05-06T09:05:19.697Z,4.88
2023-05-06T09:07:47.199Z,2.60
2023-05-06T09:10:14.736Z,3.08
2023-05-06T09:12:41.927Z,2.50
2023-05-06T09:15:09.945Z,4.60
2023-05-06T09:17:37.134Z,2.75
2023-05-06T09:20:08.780Z,5.18
2023-05-06T09:22:40.265Z,2.92
2023-05-06T09:25:08.419Z,3.33
2023-05-06T09:27:37.192Z,4.00
2023-05-06T09:30:08.531Z,5.18
2023-05-06T09:32:39.830Z,3.85
2023-05-06T09:35:08.937Z,3.55
2023-05-06T09:37:36.889Z,3.95
2023-05-06T09:40:04.607Z,3.45
2023-05-06T09:42:32.103Z,2.67
2023-05-06T09:45:03.185Z,3.10
2023-05-06T09:47:35.552Z,2.80
2023-05-06T09:50:04.404Z,2.95
2023-05-06T09:52:31.789Z,3.25
2023-05-06T09:54:58.876Z,3.33
2023-05-06T09:57:27.321Z,3.30
2023-05-06T09:59:55.051Z,3.30
2023-05-06T10:02:24.181Z,3.15
2023-05-06T10:04:54.703Z,3.08
2023-05-06T10:07:26.058Z,9.77
2023-05-06T10:09:55.676Z,2.67
2023-05-06T10:12:22.875Z,2.55
2023-05-06T10:14:49.629Z,2.45
2023-05-06T10:17:18.771Z,2.70
2023-05-06T10:19:47.992Z,4.47
2023-05-06T10:22:45.994Z,3.90
2023-05-06T10:25:35.328Z,3.33
2023-05-06T10:28:07.454Z,2.80
2023-05-06T10:30:38.939Z,4.22
2023-05-06T10:33:09.221Z,3.58
2023-05-06T10:35:42.460Z,3.50
2023-05-06T10:38:22.706Z,2.42
2023-05-06T10:40:51.301Z,2.42
2023-05-06T10:43:31.854Z,2.85
2023-05-06T10:46:01.140Z,2.90
2023-05-06T10:48:28.992Z,2.75
2023-05-06T10:51:14.661Z,2.30
2023-05-06T10:53:56.636Z,2.75
2023-05-06T10:56:24.306Z,3.25
2023-05-06T10:58:51.542Z,3.63
2023-05-06T11:01:22.996Z,3.67
2023-05-06T11:03:52.688Z,2.67
2023-05-06T11:06:36.581Z,3.45
2023-05-06T11:12:00.601Z,3.15
2023-05-06T11:14:29.473Z,4.50
2023-05-06T11:17:00.672Z,3.10
2023-05-06T11:19:33.557Z,3.33
2023-05-06T11:22:02.722Z,2.67
2023-05-06T11:24:30.920Z,2.92
2023-05-06T11:26:59.965Z,2.78
2023-05-06T11:29:27.364Z,2.90
2023-05-06T11:31:54.426Z,5.07
2023-05-06T11:34:30.310Z,2.90
2023-05-06T11:36:59.921Z,2.30
2023-05-06T11:39:30.964Z,2.42
2023-05-06T11:42:07.228Z,4.18
2023-05-06T11:44:39.092Z,2.53
2023-05-06T11:47:08.848Z,2.15
2023-05-06T11:49:42.880Z,2.80
2023-05-06T11:52:11.619Z,2.45
2023-05-06T11:54:42.885Z,3.30
2023-05-06T11:57:11.168Z,2.40
2023-05-06T11:59:40.248Z,2.63
2023-05-06T12:02:10.212Z,3.40
2023-05-06T12:04:48.328Z,2.90
2023-05-06T12:07:16.510Z,3.17
2023-05-06T12:09:49.287Z,2.55
2023-05-06T12:12:22.873Z,3.03
2023-05-06T12:14:52.589Z,3.38
2023-05-06T12:17:20.617Z,3.05
2023-05-06T12:19:48.271Z,2.92
2023-05-06T12:22:20.938Z,3.10
2023-05-06T12:24:49.350Z,2.60
2023-05-06T12:27:33.836Z,3.92
2023-05-06T12:30:01.573Z,2.80
2023-05-06T12:32:28.966Z,2.53
2023-05-06T12:34:57.184Z,2.83
2023-05-06T12:37:26.354Z,2.88
2023-05-06T12:39:54.444Z,2.78
2023-05-06T12:42:23.634Z,2.70
2023-05-06T12:44:51.018Z,2.38
2023-05-06T12:47:26.427Z,2.83
2023-05-06T12:49:56.842Z,3.00
2023-05-06T12:52:26.447Z,2.83
2023-05-06T12:54:53.763Z,2.90
2023-05-06T12:57:21.556Z,2.65
2023-05-06T12:59:49.746Z,2.40
2023-05-06T13:02:17.159Z,2.75
2023-05-06T13:04:45.715Z,2.88
2023-05-06T13:07:13.145Z,3.00
2023-05-06T13:09:41.171Z,4.63
2023-05-06T13:12:08.524Z,3.50
2023-05-06T13:14:37.685Z,3.10
2023-05-06T13:17:07.345Z,2.58
2023-05-06T13:19:34.700Z,3.05
2023-05-06T13:22:02.436Z,2.95
2023-05-06T13:24:30.570Z,3.83
2023-05-06T13:26:59.948Z,3.40
2023-05-06T13:29:27.343Z,3.67
2023-05-06T13:31:55.100Z,3.28
2023-05-06T13:34:22.354Z,3.47
2023-05-06T13:36:50.305Z,3.25
2023-05-06T13:39:17.712Z,3.40
2023-05-06T13:41:50.236Z,3.33
2023-05-06T13:44:22.062Z,4.05
2023-05-06T13:46:49.061Z,4.15
2023-05-06T13:49:16.633Z,5.35
2023-05-06T13:51:44.069Z,3.95
2023-05-06T13:54:11.331Z,3.78
2023-05-06T13:56:39.087Z,3.90
2023-05-06T13:59:08.562Z,3.95
2023-05-06T14:01:37.163Z,3.85
2023-05-06T14:04:04.155Z,6.88
2023-05-06T14:06:39.756Z,3.90
2023-05-06T14:09:13.253Z,3.17
2023-05-06T14:11:40.753Z,3.92
2023-05-06T14:14:07.645Z,4.30
2023-05-06T14:16:35.201Z,4.45
2023-05-06T14:19:02.367Z,7.07
2023-05-06T14:21:29.390Z,4.47
2023-05-06T14:23:57.305Z,4.53
2023-05-06T14:26:24.417Z,5.18
2023-05-06T14:28:51.814Z,5.63
2023-05-06T14:31:19.225Z,5.07
2023-05-06T14:33:46.577Z,5.13
2023-05-06T14:36:19.114Z,4.95
2023-05-06T14:38:46.540Z,4.90
2023-05-06T14:41:13.674Z,5.28
2023-05-06T14:43:41.040Z,5.13
2023-05-06T14:46:08.578Z,6.32
2023-05-06T14:48:35.812Z,6.25
2023-05-06T14:51:03.481Z,5.40
2023-05-06T14:53:30.927Z,5.35
2023-05-06T14:55:58.498Z,5.20
2023-05-06T14:58:25.788Z,5.55
2023-05-06T15:00:52.672Z,4.70
2023-05-06T15:03:20.186Z,5.50
2023-05-06T15:05:47.811Z,5.63
2023-05-06T15:08:15.160Z,4.53
2023-05-06T15:10:43.035Z,5.05
2023-05-06T15:13:10.527Z,4.68
2023-05-06T15:15:37.457Z,4.85
2023-05-06T15:18:05.052Z,5.68
2023-05-06T15:20:32.628Z,5.05
2023-05-06T15:23:00.052Z,5.15
2023-05-06T15:25:35.716Z,5.65
2023-05-06T15:28:04.524Z,5.60
2023-05-06T15:30:32.331Z,6.13
2023-05-06T15:32:59.172Z,6.70
2023-05-06T15:35:26.575Z,11.25
2023-05-06T15:37:59.527Z,6.78
2023-05-06T15:40:27.095Z,6.15
2023-05-06T15:42:54.498Z,6.47
2023-05-06T15:45:22.710Z,6.03
2023-05-06T15:47:49.632Z,5.85
2023-05-06T15:50:31.941Z,7.28
2023-05-06T15:53:01.821Z,7.05
2023-05-06T15:55:29.567Z,6.80
2023-05-06T15:57:59.831Z,6.22
2023-05-06T16:00:28.467Z,6.22
2023-05-06T16:02:55.855Z,6.90
2023-05-06T16:05:23.335Z,5.60
2023-05-06T16:07:50.890Z,11.43
2023-05-06T16:10:18.066Z,9.05
2023-05-06T16:12:45.379Z,9.30
2023-05-06T16:15:12.775Z,24.13
2023-05-06T16:17:41.053Z,12.70
2023-05-06T16:20:12.087Z,5.95
2023-05-06T16:22:40.169Z,6.20
2023-05-06T16:25:07.182Z,5.90
2023-05-06T16:27:34.680Z,6.30
2023-05-06T16:30:02.044Z,15.07
2023-05-06T16:32:29.499Z,6.35
2023-05-06T16:34:56.904Z,6.13
2023-05-06T16:37:24.297Z,6.57
2023-05-06T16:39:51.567Z,6.45
2023-05-06T16:42:18.654Z,6.85
2023-05-06T16:44:46.774Z,5.82
2023-05-06T16:47:14.206Z,5.40
2023-05-06T16:49:41.626Z,5.90
2023-05-06T16:52:09.098Z,5.88
2023-05-06T16:54:36.364Z,5.63
2023-05-06T16:57:04.317Z,6.15
2023-05-06T16:59:31.676Z,5.78
2023-05-06T17:01:58.953Z,5.93
2023-05-06T17:04:26.708Z,5.43
2023-05-06T17:06:55.598Z,5.38
2023-05-06T17:09:23.299Z,6.13
2023-05-06T17:11:50.756Z,6.20
2023-05-06T17:14:18.013Z,8.15
2023-05-06T17:16:45.772Z,6.47
2023-05-06T17:19:13.072Z,5.53
2023-05-06T17:21:40.477Z,5.70
2023-05-06T17:24:08.079Z,6.28
2023-05-06T17:26:35.802Z,10.50
2023-05-06T17:29:03.331Z,5.50
2023-05-06T17:31:30.685Z,6.15
2023-05-06T17:33:58.324Z,5.05
2023-05-06T17:36:25.512Z,5.80
2023-05-06T17:39:01.886Z,5.65
2023-05-06T17:41:28.961Z,5.05
2023-05-06T17:43:56.592Z,8.10
2023-05-06T17:46:24.083Z,5.38
2023-05-06T17:48:51.428Z,5.50
2023-05-06T17:51:19.431Z,5.55
2023-05-06T17:53:46.567Z,4.90
2023-05-06T17:56:13.759Z,6.65
2023-05-06T17:58:41.168Z,5.03
2023-05-06T18:01:09.561Z,5.20
2023-05-06T18:03:37.081Z,5.60
2023-05-06T18:06:04.605Z,5.75
2023-05-06T18:08:31.828Z,5.53
2023-05-06T18:10:59.661Z,7.95
2023-05-06T18:13:27.577Z,13.25
2023-05-06T18:15:55.133Z,7.97
2023-05-06T18:18:22.507Z,5.47
2023-05-06T18:20:49.665Z,6.05
2023-05-06T18:23:16.998Z,6.50
2023-05-06T18:25:44.451Z,8.00
2023-05-06T18:28:11.665Z,6.35
2023-05-06T18:30:38.983Z,6.65
2023-05-06T18:33:05.914Z,6.15
2023-05-06T18:35:33.027Z,6.78
2023-05-06T18:38:00.467Z,7.25
2023-05-06T18:40:27.657Z,6.70
2023-05-06T18:42:57.172Z,6.38
2023-05-06T18:45:25.063Z,7.13
2023-05-06T18:47:52.487Z,6.95
2023-05-06T18:50:19.807Z,9.35
2023-05-06T18:52:47.109Z,6.82
2023-05-06T18:55:14.544Z,5.63
2023-05-06T18:57:42.359Z,6.97
2023-05-06T19:00:10.092Z,7.72
2023-05-06T19:02:38.242Z,9.77
2023-05-06T19:05:07.111Z,8.27
2023-05-06T19:07:34.502Z,7.03
2023-05-06T19:10:02.031Z,6.90
2023-05-06T19:12:31.047Z,6.45
2023-05-06T19:14:58.617Z,8.38
2023-05-06T19:17:26.144Z,7.50
2023-05-06T19:19:53.416Z,7.07
2023-05-06T19:22:20.957Z,7.30
2023-05-06T19:24:48.640Z,10.68
2023-05-06T19:27:15.707Z,11.07
2023-05-06T19:29:43.072Z,7.82
2023-05-06T19:32:10.806Z,12.18
2023-05-06T19:34:38.241Z,10.05
2023-05-06T19:37:05.159Z,12.98
2023-05-06T19:39:32.486Z,15.93
2023-05-06T19:41:59.682Z,8.05
2023-05-06T19:44:26.434Z,11.43
2023-05-06T19:46:57.385Z,11.00
2023-05-06T19:49:24.602Z,11.50
2023-05-06T19:51:51.777Z,12.38
2023-05-06T19:54:19.931Z,10.80
2023-05-06T19:56:47.167Z,9.93
2023-05-06T19:59:14.412Z,6.72
2023-05-06T20:01:41.994Z,10.88
2023-05-06T20:04:10.345Z,21.08
2023-05-06T20:06:37.940Z,8.48
2023-05-06T20:09:07.126Z,9.43
2023-05-06T20:11:34.262Z,4.90
2023-05-06T20:14:01.858Z,5.43
2023-05-06T20:16:29.016Z,3.88
2023-05-06T20:18:56.759Z,5.22
2023-05-06T20:21:24.378Z,3.97
2023-05-06T20:23:51.631Z,5.78
2023-05-06T20:26:18.372Z,3.95
2023-05-06T20:28:45.292Z,3.17
2023-05-06T20:31:12.687Z,3.08
2023-05-06T20:33:40.052Z,6.57
2023-05-06T20:36:07.471Z,5.68
2023-05-06T20:38:35.338Z,4.43
2023-05-06T20:41:03.540Z,2.90
2023-05-06T20:43:31.113Z,2.47
2023-05-06T20:45:58.638Z,5.43
2023-05-06T20:48:28.332Z,3.38
2023-05-06T20:50:57.664Z,5.32
2023-05-06T20:53:25.661Z,7.43
2023-05-06T20:55:52.925Z,4.63
2023-05-06T20:58:20.245Z,4.70
2023-05-06T21:00:47.592Z,3.35
2023-05-06T21:03:15.027Z,3.00
2023-05-06T21:05:42.448Z,3.17
2023-05-06T21:08:09.806Z,2.35
2023-05-06T21:10:37.329Z,4.50
2023-05-06T21:13:05.216Z,4.35
2023-05-06T21:15:34.989Z,2.40
2023-05-06T21:18:02.633Z,2.50
2023-05-06T21:20:29.429Z,2.63
2023-05-06T21:22:56.651Z,2.08
2023-05-06T21:25:24.394Z,1.90
2023-05-06T21:27:52.018Z,2.08
2023-05-06T21:30:19.539Z,1.95
2023-05-06T21:32:47.083Z,2.95
2023-05-06T21:35:14.487Z,1.98
2023-05-06T21:37:46.964Z,5.00
2023-05-06T21:40:14.418Z,2.72
2023-05-06T21:42:41.795Z,1.92
2023-05-06T21:45:09.613Z,2.17
2023-05-06T21:47:37.605Z,1.88
2023-05-06T21:50:06.157Z,2.15
2023-05-06T21:52:33.717Z,1.92
2023-05-06T21:55:01.205Z,2.00
2023-05-06T21:57:28.843Z,2.25
2023-05-06T21:59:55.680Z,2.08
2023-05-06T22:02:22.964Z,1.65
2023-05-06T22:04:49.987Z,1.98
2023-05-06T22:07:17.409Z,2.25
2023-05-06T22:09:45.172Z,2.03
2023-05-06T22:12:13.387Z,2.00
2023-05-06T22:14:41.780Z,1.80
2023-05-06T22:17:10.923Z,2.55
2023-05-06T22:19:39.186Z,1.92
2023-05-06T22:22:07.012Z,2.17
2023-05-06T22:24:34.631Z,2.20
2023-05-06T22:27:02.128Z,1.70
2023-05-06T22:29:29.394Z,2.53
2023-05-06T22:31:57.162Z,1.70
2023-05-06T22:34:24.049Z,1.90
2023-05-06T22:36:51.177Z,1.80
2023-05-06T22:39:17.917Z,2.00
2023-05-06T22:41:44.943Z,1.92
2023-05-06T22:44:13.977Z,1.70
2023-05-06T22:46:41.467Z,1.52
2023-05-06T22:49:09.362Z,1.65
2023-05-06T22:51:36.599Z,2.05
2023-05-06T22:54:03.985Z,2.08
2023-05-06T22:56:30.696Z,3.20
2023-05-06T22:58:58.042Z,2.72
2023-05-06T23:01:26.466Z,2.08
2023-05-06T23:03:53.910Z,2.28
2023-05-06T23:06:21.235Z,2.00
2023-05-06T23:08:48.540Z,2.40
2023-05-06T23:11:16.081Z,1.83
2023-05-06T23:13:43.253Z,4.15
2023-05-06T23:16:11.055Z,2.70
2023-05-06T23:18:38.258Z,4.40
2023-05-06T23:21:05.774Z,2.47
2023-05-06T23:23:33.761Z,2.00
2023-05-06T23:26:01.194Z,1.40
2023-05-06T23:28:28.704Z,1.50
2023-05-06T23:30:56.083Z,1.70
2023-05-06T23:33:23.618Z,1.33
2023-05-06T23:35:50.841Z,1.48
2023-05-06T23:38:18.158Z,1.40
2023-05-06T23:40:45.822Z,1.17
2023-05-06T23:43:13.418Z,1.42
2023-05-06T23:45:40.707Z,1.40
2023-05-06T23:48:08.504Z,1.90
2023-05-06T23:50:35.719Z,1.23
2023-05-06T23:53:03.168Z,1.33
2023-05-06T23:55:31.111Z,1.40
2023-05-06T23:57:58.419Z,1.30
